Estación de Hornitos

Ultimos registro cada 15 minutos 72
Estación Fecha / Hora Temperatura Humedad Lluvia Velocidad Dirección Radiación Presion
72 Hornitos 07-05-2026 18:00 21 28 0 0,9 311 0 1011,2
71 Hornitos 07-05-2026 17:45 22,3 25 0 0,4 290 9 1011,2
70 Hornitos 07-05-2026 17:30 22,9 23 0 0,4 275 12 1011,3
69 Hornitos 07-05-2026 17:15 23,7 21 0 2,2 313 16 1011
68 Hornitos 07-05-2026 17:00 25,2 19 0 0,9 14 132 1011,2
67 Hornitos 07-05-2026 16:45 25,8 18 0 0,9 342 183 1011,4
66 Hornitos 07-05-2026 16:30 25,9 18 0 1,3 325 230 1011,3
65 Hornitos 07-05-2026 16:15 26,2 18 0 0,9 321 267 1011,2
64 Hornitos 07-05-2026 16:00 26,3 18 0 1,3 349 308 1011,1
63 Hornitos 07-05-2026 15:45 26,7 17 0 1,8 52 357 1011,3
62 Hornitos 07-05-2026 15:30 27,5 15 0 1,8 304 387 1011,3
61 Hornitos 07-05-2026 15:15 27,6 11 0 0,9 338 424 1011,3
60 Hornitos 07-05-2026 15:00 27,8 8 0 0,4 38 459 1011,4
59 Hornitos 07-05-2026 14:45 27,6 4 0 0,9 344 501 1011,4
58 Hornitos 07-05-2026 14:30 27,6 5 0 0,9 244 531 1011,8
57 Hornitos 07-05-2026 14:15 27,4 6 0 1,3 305 559 1012
56 Hornitos 07-05-2026 14:00 27,3 7 0 2,7 288 582 1012,1
55 Hornitos 07-05-2026 13:45 26,8 8 0 1,8 320 540 1012,6
54 Hornitos 07-05-2026 13:30 26,7 9 0 1,8 318 79 1012,7
53 Hornitos 07-05-2026 13:15 26,2 11 0 1,8 324 62 1013,1
52 Hornitos 07-05-2026 13:00 26,2 11 0 1,8 324 62 1013,1
51 Hornitos 07-05-2026 12:45 26 8 0 2,2 1 165 1013
50 Hornitos 07-05-2026 12:30 25,8 13 0 0,9 356 408 1013,3
49 Hornitos 07-05-2026 12:15 25,4 13 0 0,9 316 84 1013,5
48 Hornitos 07-05-2026 12:00 24,7 15 0 0,4 337 139 1013,7
47 Hornitos 07-05-2026 11:45 24,2 18 0 0,4 285 183 1014,3
46 Hornitos 07-05-2026 11:30 23,6 19 0 0 320 371 1014,3
45 Hornitos 07-05-2026 11:15 22,4 23 0 0 27 559 1014,9
44 Hornitos 07-05-2026 11:00 22,4 23 0 0 27 559 1014,9
43 Hornitos 07-05-2026 10:45 21,7 24 0 0,9 75 536 1014,8
42 Hornitos 07-05-2026 10:30 20,9 26 0 0,4 66 508 1015,2
41 Hornitos 07-05-2026 10:15 20,1 28 0 0,4 4 476 1015,4
40 Hornitos 07-05-2026 10:00 19,4 32 0 0,9 353 439 1015,9
39 Hornitos 07-05-2026 09:45 18,7 36 0 0,9 324 404 1015,9
38 Hornitos 07-05-2026 09:30 17,4 39 0 0 71 366 1016,1
37 Hornitos 07-05-2026 09:15 16,3 43 0 0,4 72 327 1016,1
36 Hornitos 07-05-2026 09:00 14,6 51 0 0,4 121 281 1016,2
35 Hornitos 07-05-2026 08:45 12,8 58 0 0,4 73 237 1016
34 Hornitos 07-05-2026 08:30 9,4 73 0 0 356 202 1015,7
33 Hornitos 07-05-2026 08:15 6,8 74 0 0 355 155 1015,7
32 Hornitos 07-05-2026 08:00 5,9 72 0 0 237 16 1015,6
31 Hornitos 07-05-2026 07:45 5,7 72 0 0 237 12 1015,7
30 Hornitos 07-05-2026 07:30 5,6 72 0 0 237 9 1015,6
29 Hornitos 07-05-2026 07:15 5,4 72 0 0 237 5 1015,5
28 Hornitos 07-05-2026 07:00 5,4 71 0 0 240 0 1015,4
27 Hornitos 07-05-2026 06:45 5,6 72 0 0 240 0 1015,2
26 Hornitos 07-05-2026 06:30 5,5 71 0 0 242 0 1014,9
25 Hornitos 07-05-2026 06:15 5,7 72 0 0 242 0 1014,8
24 Hornitos 07-05-2026 06:00 5,7 71 0 0 241 0 1014,8
23 Hornitos 07-05-2026 05:45 5,8 71 0 0 242 0 1014,7
22 Hornitos 07-05-2026 05:30 6 71 0 0 242 0 1014,7
21 Hornitos 07-05-2026 05:15 6 71 0 0 242 0 1014,7
20 Hornitos 07-05-2026 05:00 6,2 71 0 0 242 0 1014,8
19 Hornitos 07-05-2026 04:45 6,4 71 0 0 242 0 1014,6
18 Hornitos 07-05-2026 04:30 6,7 71 0 0 242 0 1014,6
17 Hornitos 07-05-2026 04:15 6,6 70 0 0 242 0 1014,5
16 Hornitos 07-05-2026 04:00 6,8 70 0 0 242 0 1014,5
15 Hornitos 07-05-2026 03:45 6,7 70 0 0 242 0 1014,3
14 Hornitos 07-05-2026 03:30 6,9 70 0 0 242 0 1014,4
13 Hornitos 07-05-2026 03:15 6,8 70 0 0,4 242 0 1014,4
12 Hornitos 07-05-2026 03:00 7,1 70 0 0 243 0 1014,4
11 Hornitos 07-05-2026 02:45 7,2 69 0 0 243 0 1014,5
10 Hornitos 07-05-2026 02:30 7,3 70 0 0 243 0 1014,5
9 Hornitos 07-05-2026 02:15 7,5 69 0 0 243 0 1014,4
8 Hornitos 07-05-2026 02:00 7,9 70 0 0 243 0 1014,4
7 Hornitos 07-05-2026 01:45 7,9 70 0 0 243 0 1014,4
6 Hornitos 07-05-2026 01:30 7,7 68 0 0 234 0 1014,6
5 Hornitos 07-05-2026 01:00 7,8 69 0 0 234 0 1014,5
4 Hornitos 07-05-2026 00:45 7,9 68 0 0 235 0 1014,5
3 Hornitos 07-05-2026 00:30 8,2 67 0 0 235 0 1014,6
2 Hornitos 07-05-2026 00:15 8,8 67 0 0 235 0 1014,8
1 Hornitos 07-05-2026 00:00 9,1 69 0 0 235 0 1014,8